createdAt,value
2016-11-12T00:01:16.883Z,66.46
2016-11-12T00:06:16.822Z,66.84
2016-11-12T00:11:16.768Z,66.64
2016-11-12T00:16:16.709Z,66.84
2016-11-12T00:21:16.657Z,66.84
2016-11-12T00:26:16.605Z,66.64
2016-11-12T00:31:16.240Z,66.84
2016-11-12T00:36:16.188Z,66.52
2016-11-12T00:41:16.439Z,66.9
2016-11-12T00:46:16.382Z,66.9
2016-11-12T00:51:16.332Z,66.52
2016-11-12T00:56:16.273Z,66.61
2016-11-12T01:01:15.911Z,66.52
2016-11-12T01:06:16.149Z,66.9
2016-11-12T01:11:16.091Z,66.52
2016-11-12T01:16:16.038Z,66.8
2016-11-12T01:21:15.981Z,66.96
2016-11-12T01:26:15.914Z,66.77
2016-11-12T01:31:15.855Z,66.96
2016-11-12T01:36:15.798Z,66.49
2016-11-12T01:41:15.435Z,66.49
2016-11-12T01:46:15.675Z,66.58
2016-11-12T01:51:15.618Z,66.49
2016-11-12T01:56:15.261Z,66.39
2016-11-12T02:01:15.497Z,66.58
2016-11-12T02:06:15.443Z,66.67
2016-11-12T02:11:15.376Z,66.49
2016-11-12T02:16:15.027Z,66.58
2016-11-12T02:21:15.256Z,66.39
2016-11-12T02:26:15.200Z,66.49
2016-11-12T02:31:15.139Z,66.67
2016-11-12T02:36:15.090Z,66.74
2016-11-12T02:41:15.025Z,66.67
2016-11-12T02:46:14.959Z,66.1
2016-11-12T02:51:14.901Z,66.16
2016-11-12T02:56:14.838Z,66.06
2016-11-12T03:01:14.774Z,66.06
2016-11-12T03:06:14.713Z,66.16
2016-11-12T03:11:14.653Z,66.26
2016-11-12T03:16:14.590Z,66.26
2016-11-12T03:21:14.226Z,66.16
2016-11-12T03:26:14.166Z,66.35
2016-11-12T03:31:14.406Z,66.16
2016-11-12T03:36:14.356Z,66.16
2016-11-12T03:41:14.282Z,66.26
2016-11-12T03:46:13.918Z,66.26
2016-11-12T03:51:14.164Z,66.26
2016-11-12T03:56:14.099Z,66.06
2016-11-12T04:01:14.038Z,66.35
2016-11-12T04:06:13.673Z,66.35
2016-11-12T04:11:13.910Z,66.06
2016-11-12T04:16:13.854Z,66.16
2016-11-12T04:21:13.787Z,66.26
2016-11-12T04:26:13.721Z,66.26
2016-11-12T04:31:13.657Z,66.32
2016-11-12T04:36:13.293Z,66.03
2016-11-12T04:41:13.227Z,66.13
2016-11-12T04:46:13.168Z,66.03
2016-11-12T04:51:13.407Z,66.13
2016-11-12T04:56:13.043Z,66.22
2016-11-12T05:01:13.281Z,66.13
2016-11-12T05:06:13.217Z,66.03
2016-11-12T05:11:13.151Z,66.13
2016-11-12T05:16:13.093Z,66.32
2016-11-12T05:21:13.025Z,66.13
2016-11-12T05:26:12.965Z,66.32
2016-11-12T05:31:12.594Z,66.13
2016-11-12T05:36:12.842Z,66.13
2016-11-12T05:41:12.776Z,66.13
2016-11-12T05:46:12.706Z,66.13
2016-11-12T05:51:12.646Z,66
2016-11-12T05:56:12.616Z,66.13
2016-11-12T06:01:12.525Z,66.19
2016-11-12T06:06:12.154Z,66.22
2016-11-12T06:11:12.398Z,66.09
2016-11-12T06:16:12.325Z,66
2016-11-12T06:21:12.259Z,66
2016-11-12T06:26:12.201Z,66.67
2016-11-12T06:31:12.127Z,66.19
2016-11-12T06:36:12.063Z,65.52
2016-11-12T06:41:12.023Z,66.22
2016-11-12T06:46:11.629Z,65.46
2016-11-12T06:51:11.870Z,65.49
2016-11-12T06:56:11.798Z,65.88
2016-11-12T07:01:11.434Z,65.52
2016-11-12T07:06:11.675Z,64.37
2016-11-12T07:11:11.608Z,63.64
2016-11-12T07:16:11.246Z,63.28
2016-11-12T07:21:11.491Z,63.09
2016-11-12T07:26:11.420Z,62.9
2016-11-12T07:31:11.052Z,62.61
2016-11-12T07:36:11.299Z,62.9
2016-11-12T07:41:11.240Z,63.86
2016-11-12T07:46:11.178Z,63.67
2016-11-12T07:51:11.114Z,63.7
2016-11-12T07:56:10.752Z,63.19
2016-11-12T08:01:11.001Z,62.9
2016-11-12T08:06:10.940Z,62.55
2016-11-12T08:11:10.881Z,63.02
2016-11-12T08:16:10.822Z,62.93
2016-11-12T08:21:10.770Z,63.22
2016-11-12T08:26:10.705Z,63.02
2016-11-12T08:31:10.342Z,63.79
2016-11-12T08:36:10.284Z,63.02
2016-11-12T08:41:10.528Z,62.93
2016-11-12T08:46:10.470Z,62.93
2016-11-12T08:51:10.411Z,62.93
2016-11-12T08:56:10.351Z,62.74
2016-11-12T09:01:09.995Z,62.84
2016-11-12T09:06:09.939Z,62.74
2016-11-12T09:11:10.183Z,62.64
2016-11-12T09:16:10.131Z,62.55
2016-11-12T09:21:09.768Z,62.64
2016-11-12T09:26:10.017Z,63.02
2016-11-12T09:31:09.959Z,62.74
2016-11-12T09:36:09.594Z,63.06
2016-11-12T09:41:09.845Z,64.22
2016-11-12T09:46:09.478Z,65.56
2016-11-12T09:51:09.423Z,66.33
2016-11-12T09:56:09.367Z,66.81
2016-11-12T10:01:09.614Z,66.42
2016-11-12T10:06:09.560Z,66.61
2016-11-12T10:11:09.204Z,66.71
2016-11-12T10:16:09.140Z,66.71
2016-11-12T10:21:09.390Z,66.61
2016-11-12T10:26:09.331Z,66.52
2016-11-12T10:31:09.280Z,67.1
2016-11-12T10:36:08.918Z,67.1
2016-11-12T10:41:09.160Z,66.61
2016-11-12T10:46:08.798Z,66.61
2016-11-12T10:51:09.054Z,66.71
2016-11-12T10:56:08.987Z,66.61
2016-11-12T11:01:08.627Z,66.61
2016-11-12T11:06:08.874Z,66.52
2016-11-12T11:11:08.825Z,66.23
2016-11-12T11:16:08.463Z,66.33
2016-11-12T11:21:08.699Z,66.42
2016-11-12T11:26:08.345Z,66.33
2016-11-12T11:31:08.587Z,66.61
2016-11-12T11:36:08.539Z,66.61
2016-11-12T11:41:08.174Z,66.91
2016-11-12T11:46:08.421Z,66.91
2016-11-12T11:51:08.053Z,66.71
2016-11-12T11:56:08.301Z,66.65
2016-11-12T12:01:08.292Z,66.49
2016-11-12T12:06:08.193Z,66.88
2016-11-12T12:11:08.126Z,66.74
2016-11-12T12:16:07.761Z,66.84
2016-11-12T12:21:08.004Z,67.38
2016-11-12T12:26:07.950Z,67.19
2016-11-12T12:31:07.901Z,68.06
2016-11-12T12:36:07.843Z,68.06
2016-11-12T12:41:07.782Z,68.73
2016-11-12T12:46:07.423Z,68.63
2016-11-12T12:51:07.705Z,68.44
2016-11-12T12:56:07.620Z,68.92
2016-11-12T13:01:07.254Z,68.92
2016-11-12T13:06:07.192Z,69.31
2016-11-12T13:11:07.440Z,69.02
2016-11-12T13:16:07.076Z,69.12
2016-11-12T13:21:07.329Z,69.31
2016-11-12T13:26:07.268Z,69.69
2016-11-12T13:31:06.905Z,69.56
2016-11-12T13:36:07.184Z,69.56
2016-11-12T13:41:06.785Z,69.66
2016-11-12T13:46:07.032Z,69.18
2016-11-12T13:51:06.671Z,69.56
2016-11-12T13:56:06.915Z,69.46
2016-11-12T14:01:06.559Z,69.08
2016-11-12T14:06:06.805Z,69.18
2016-11-12T14:11:06.741Z,68.79
2016-11-12T14:16:06.682Z,69.08
2016-11-12T14:21:06.631Z,68.89
2016-11-12T14:26:06.275Z,68.79
2016-11-12T14:31:06.515Z,68.6
2016-11-12T14:36:06.473Z,68.79
2016-11-12T14:41:06.400Z,68.6
2016-11-12T14:46:06.344Z,68.7
2016-11-12T14:51:06.286Z,67.93
2016-11-12T14:56:05.924Z,68.31
2016-11-12T15:01:05.869Z,67.74
2016-11-12T15:06:06.120Z,68.12
2016-11-12T15:11:06.069Z,68.02
2016-11-12T15:16:05.700Z,67.25
2016-11-12T15:21:05.955Z,67.64
2016-11-12T15:26:05.908Z,67.25
2016-11-12T15:31:05.842Z,67.45
2016-11-12T15:36:05.788Z,67.45
2016-11-12T15:41:05.432Z,66.87
2016-11-12T15:46:05.676Z,66.97
2016-11-12T15:51:05.629Z,66.77
2016-11-12T15:56:05.564Z,66.68
2016-11-12T16:01:05.506Z,66.77
2016-11-12T16:06:05.456Z,66.68
2016-11-12T16:11:05.396Z,66.68
2016-11-12T16:16:05.346Z,67.07
2016-11-12T16:21:04.986Z,66.68
2016-11-12T16:26:05.238Z,66.58
2016-11-12T16:31:04.875Z,66.77
2016-11-12T16:36:05.121Z,66.87
2016-11-12T16:41:05.079Z,66.49
2016-11-12T16:46:05.021Z,66.49
2016-11-12T16:51:04.675Z,66.23
2016-11-12T16:56:04.916Z,65.69
2016-11-12T17:01:04.565Z,65.4
2016-11-12T17:06:04.806Z,65.33
2016-11-12T17:11:04.756Z,65.53
2016-11-12T17:16:04.705Z,65.53
2016-11-12T17:21:04.648Z,65.24
2016-11-12T17:26:04.609Z,65.53
2016-11-12T17:31:04.239Z,65.05
2016-11-12T17:36:04.492Z,64.56
2016-11-12T17:41:04.136Z,65.33
2016-11-12T17:46:04.085Z,65.33
2016-11-12T17:51:04.037Z,64.86
2016-11-12T17:56:04.729Z,64.86
2016-11-12T18:01:04.239Z,65.24
2016-11-12T18:06:03.885Z,64.47
2016-11-12T18:11:03.830Z,64.95
2016-11-12T18:16:03.788Z,64.95
2016-11-12T18:21:03.731Z,64.37
2016-11-12T18:26:03.985Z,64.28
2016-11-12T18:31:03.933Z,64.76
2016-11-12T18:36:03.883Z,63.99
2016-11-12T18:41:03.830Z,64.66
2016-11-12T18:46:03.773Z,64.37
2016-11-12T18:51:03.729Z,64.37
2016-11-12T18:56:03.686Z,64.18
2016-11-12T19:01:03.327Z,64.34
2016-11-12T19:06:03.580Z,63.79
2016-11-12T19:11:03.524Z,63.99
2016-11-12T19:16:03.478Z,64.08
2016-11-12T19:21:03.422Z,64.25
2016-11-12T19:26:03.368Z,63.86
2016-11-12T19:31:03.016Z,64.37
2016-11-12T19:36:03.269Z,64.05
2016-11-12T19:41:03.219Z,63.7
2016-11-12T19:46:03.163Z,63.99
2016-11-12T19:51:02.817Z,64.08
2016-11-12T19:56:03.057Z,63.57
2016-11-12T20:01:03.005Z,63.86
2016-11-12T20:06:02.959Z,63.79
2016-11-12T20:11:02.907Z,63.89
2016-11-12T20:16:02.853Z,63.95
2016-11-12T20:21:02.801Z,63.67
2016-11-12T20:26:02.755Z,63.95
2016-11-12T20:31:02.703Z,63.86
2016-11-12T20:36:02.648Z,63.99
2016-11-12T20:41:02.601Z,63.79
2016-11-12T20:46:02.549Z,64.28
2016-11-12T20:51:02.495Z,64.66
2016-11-12T20:56:02.143Z,64.95
2016-11-12T21:01:02.401Z,64.47
2016-11-12T21:06:02.040Z,64.37
2016-11-12T21:11:01.988Z,65.43
2016-11-12T21:16:01.944Z,65.05
2016-11-12T21:21:01.889Z,65.14
2016-11-12T21:26:02.144Z,65.05
2016-11-12T21:31:01.795Z,65.24
2016-11-12T21:36:01.748Z,65.43
2016-11-12T21:41:01.999Z,65.53
2016-11-12T21:46:01.947Z,65.43
2016-11-12T21:51:01.597Z,65.43
2016-11-12T21:56:01.855Z,65.43
2016-11-12T22:01:01.803Z,65.63
2016-11-12T22:06:01.748Z,65.63
2016-11-12T22:11:01.699Z,65.63
2016-11-12T22:16:01.648Z,65.24
2016-11-12T22:21:01.596Z,65.63
2016-11-12T22:26:01.544Z,65.24
2016-11-12T22:31:01.188Z,64.95
2016-11-12T22:36:01.441Z,65.53
2016-11-12T22:41:01.086Z,65.33
2016-11-12T22:46:01.372Z,65.53
2016-11-12T22:51:01.291Z,65.33
2016-11-12T22:56:01.241Z,65.43
2016-11-12T23:01:01.185Z,65.53
2016-11-12T23:06:01.137Z,65.53
2016-11-12T23:11:01.085Z,65.81
2016-11-12T23:16:01.029Z,65.91
2016-11-12T23:21:00.981Z,64.73
2016-11-12T23:26:00.627Z,65.5
2016-11-12T23:31:00.879Z,65.78
2016-11-12T23:36:00.832Z,64.82
2016-11-12T23:41:00.771Z,64.6
2016-11-12T23:46:00.719Z,64.31
2016-11-12T23:51:00.361Z,64.79
2016-11-12T23:56:00.613Z,64.5
